메인 페이지
METAR-TAF:

METAR-TAF

공항 :

퀴라소, 네덜란드령 안틸레스

위도: 12-12N, 경도: 068-58W, 고도: 9m

현재 날씨관측

예보는 1 시간 2분 전, 18:00시(UTC)에 발표되었습니다.
12kt
온도 30°C
습도 66%
기압 1013 hPa
시정 10km 이상
고도 2400ft 상공 구름 조금

METAR: TNCC 161800Z 10012KT 9999 FEW024 30/23 Q1013 NOSIG

시각: 15:02 (19:02 UTC)

예보

예보는 3 시간 2분 전, 16:00시(UTC)에 발표되었습니다.
예보 대상 시간: 16일 18시부터 17일 18시까지 (UTC)
13kt
시정 10km 이상
고도 1800ft 상공 구름 보통
일시적
17일 06시부터 17일 10시까지 (UTC)
고도 1400ft 상공 구름 많음

TAF: TNCC 161600Z 1618/1718 10013KT 9999 SCT018 TEMPO 1706/1710 BKN014

4,000개 이상의 공항 관측 자료 및 예보 (METAR 및 TAF 보고).

지도상에서 검색 가능한 기상관측소가 노란 점과 빨간 점으로 표시되어 있습니다.

기상관측소 명을 보려면 표시 위로 마우스를 이동하세요.

날씨 관측과 예보를 보려면 클릭하세요.

지도 변경 : 확대하려면 엑스 표시가 있는 녹색 버튼, 축소하려면 빼기 표시가 있는 녹색 버튼, 다음 페이지의 지도를 보려면 녹색 화살표를 클릭하세요.


METAR-TAF: